sensor_id;sensor_type;location;lat;lon;timestamp;P1;durP1;ratioP1;P2;durP2;ratioP2
56081;SDS011;41957;52.060;5.138;2022-09-01T00:00:23;18.55;;;6.13;;
56081;SDS011;41957;52.060;5.138;2022-09-01T00:02:53;17.23;;;5.63;;
56081;SDS011;41957;52.060;5.138;2022-09-01T00:05:19;15.82;;;4.80;;
56081;SDS011;41957;52.060;5.138;2022-09-01T00:07:44;17.15;;;4.97;;
56081;SDS011;41957;52.060;5.138;2022-09-01T00:10:10;19.80;;;5.45;;
56081;SDS011;41957;52.060;5.138;2022-09-01T00:12:36;17.45;;;5.43;;
56081;SDS011;41957;52.060;5.138;2022-09-01T00:15:03;16.90;;;5.47;;
56081;SDS011;41957;52.060;5.138;2022-09-01T00:17:29;15.95;;;5.22;;
56081;SDS011;41957;52.060;5.138;2022-09-01T00:19:55;17.45;;;5.82;;
56081;SDS011;41957;52.060;5.138;2022-09-01T00:22:20;17.90;;;5.15;;
56081;SDS011;41957;52.060;5.138;2022-09-01T00:24:45;16.33;;;5.55;;
56081;SDS011;41957;52.060;5.138;2022-09-01T00:27:11;15.98;;;4.90;;
56081;SDS011;41957;52.060;5.138;2022-09-01T00:29:36;15.45;;;5.00;;
56081;SDS011;41957;52.060;5.138;2022-09-01T00:32:02;15.95;;;5.28;;
56081;SDS011;41957;52.060;5.138;2022-09-01T00:34:28;15.77;;;4.85;;
56081;SDS011;41957;52.060;5.138;2022-09-01T00:36:53;18.02;;;5.43;;
56081;SDS011;41957;52.060;5.138;2022-09-01T00:39:18;16.27;;;4.60;;
56081;SDS011;41957;52.060;5.138;2022-09-01T00:41:44;15.20;;;4.88;;
56081;SDS011;41957;52.060;5.138;2022-09-01T00:44:12;17.08;;;4.85;;
56081;SDS011;41957;52.060;5.138;2022-09-01T00:46:41;16.55;;;4.65;;
56081;SDS011;41957;52.060;5.138;2022-09-01T00:49:14;16.83;;;5.15;;
56081;SDS011;41957;52.060;5.138;2022-09-01T00:51:44;16.42;;;4.70;;
56081;SDS011;41957;52.060;5.138;2022-09-01T00:54:15;17.10;;;4.97;;
56081;SDS011;41957;52.060;5.138;2022-09-01T00:56:45;16.90;;;4.93;;
56081;SDS011;41957;52.060;5.138;2022-09-01T00:59:12;15.40;;;4.40;;
56081;SDS011;41957;52.060;5.138;2022-09-01T01:01:40;15.90;;;4.43;;
56081;SDS011;41957;52.060;5.138;2022-09-01T01:04:06;16.75;;;4.63;;
56081;SDS011;41957;52.060;5.138;2022-09-01T01:06:39;16.13;;;4.55;;
56081;SDS011;41957;52.060;5.138;2022-09-01T01:09:13;16.05;;;4.95;;
56081;SDS011;41957;52.060;5.138;2022-09-01T01:11:41;13.90;;;4.25;;
56081;SDS011;41957;52.060;5.138;2022-09-01T01:14:10;16.70;;;4.80;;
56081;SDS011;41957;52.060;5.138;2022-09-01T01:16:37;14.98;;;4.35;;
56081;SDS011;41957;52.060;5.138;2022-09-01T01:19:54;16.98;;;4.68;;
56081;SDS011;41957;52.060;5.138;2022-09-01T01:22:26;16.10;;;4.82;;
56081;SDS011;41957;52.060;5.138;2022-09-01T01:28:20;16.58;;;3.97;;
56081;SDS011;41957;52.060;5.138;2022-09-01T01:30:51;14.77;;;4.13;;
56081;SDS011;41957;52.060;5.138;2022-09-01T01:33:19;14.70;;;4.60;;
56081;SDS011;41957;52.060;5.138;2022-09-01T01:35:47;15.02;;;4.03;;
56081;SDS011;41957;52.060;5.138;2022-09-01T01:38:13;14.68;;;4.10;;
56081;SDS011;41957;52.060;5.138;2022-09-01T01:40:39;14.90;;;4.47;;
56081;SDS011;41957;52.060;5.138;2022-09-01T01:43:06;14.88;;;3.75;;
56081;SDS011;41957;52.060;5.138;2022-09-01T01:45:31;13.45;;;4.20;;
56081;SDS011;41957;52.060;5.138;2022-09-01T01:47:58;12.68;;;3.72;;
56081;SDS011;41957;52.060;5.138;2022-09-01T01:50:30;14.05;;;4.00;;
56081;SDS011;41957;52.060;5.138;2022-09-01T01:52:59;12.90;;;3.47;;
56081;SDS011;41957;52.060;5.138;2022-09-01T01:55:27;11.93;;;3.65;;
56081;SDS011;41957;52.060;5.138;2022-09-01T01:57:53;13.60;;;3.80;;
56081;SDS011;41957;52.060;5.138;2022-09-01T02:00:22;12.63;;;3.78;;
56081;SDS011;41957;52.060;5.138;2022-09-01T02:02:50;15.15;;;3.90;;
56081;SDS011;41957;52.060;5.138;2022-09-01T02:05:27;14.07;;;4.00;;
56081;SDS011;41957;52.060;5.138;2022-09-01T02:07:57;14.20;;;3.80;;
56081;SDS011;41957;52.060;5.138;2022-09-01T02:10:26;12.35;;;3.95;;
56081;SDS011;41957;52.060;5.138;2022-09-01T02:12:55;13.65;;;3.90;;
56081;SDS011;41957;52.060;5.138;2022-09-01T02:15:25;14.35;;;3.65;;
56081;SDS011;41957;52.060;5.138;2022-09-01T02:17:51;12.88;;;3.47;;
56081;SDS011;41957;52.060;5.138;2022-09-01T02:20:16;11.20;;;3.20;;
56081;SDS011;41957;52.060;5.138;2022-09-01T02:22:42;13.05;;;3.55;;
56081;SDS011;41957;52.060;5.138;2022-09-01T02:25:08;13.77;;;3.28;;
56081;SDS011;41957;52.060;5.138;2022-09-01T02:27:35;10.90;;;3.00;;
56081;SDS011;41957;52.060;5.138;2022-09-01T02:30:03;11.77;;;3.30;;
56081;SDS011;41957;52.060;5.138;2022-09-01T02:32:30;13.30;;;3.50;;
56081;SDS011;41957;52.060;5.138;2022-09-01T02:34:56;13.85;;;3.70;;
56081;SDS011;41957;52.060;5.138;2022-09-01T02:37:25;12.93;;;3.58;;
56081;SDS011;41957;52.060;5.138;2022-09-01T02:39:51;11.93;;;3.35;;
56081;SDS011;41957;52.060;5.138;2022-09-01T02:42:17;11.48;;;3.45;;
56081;SDS011;41957;52.060;5.138;2022-09-01T02:44:52;10.67;;;2.53;;
56081;SDS011;41957;52.060;5.138;2022-09-01T02:47:18;11.90;;;3.67;;
56081;SDS011;41957;52.060;5.138;2022-09-01T02:49:44;11.52;;;3.33;;
56081;SDS011;41957;52.060;5.138;2022-09-01T02:52:11;10.85;;;3.00;;
56081;SDS011;41957;52.060;5.138;2022-09-01T02:54:40;11.35;;;3.15;;
56081;SDS011;41957;52.060;5.138;2022-09-01T02:57:09;13.65;;;3.25;;
56081;SDS011;41957;52.060;5.138;2022-09-01T02:59:36;12.77;;;2.95;;
56081;SDS011;41957;52.060;5.138;2022-09-01T03:02:01;12.48;;;3.20;;
56081;SDS011;41957;52.060;5.138;2022-09-01T03:04:27;11.50;;;3.05;;
56081;SDS011;41957;52.060;5.138;2022-09-01T03:06:58;11.00;;;2.88;;
56081;SDS011;41957;52.060;5.138;2022-09-01T03:09:24;11.30;;;3.08;;
56081;SDS011;41957;52.060;5.138;2022-09-01T03:11:50;11.88;;;3.08;;
56081;SDS011;41957;52.060;5.138;2022-09-01T03:14:17;10.85;;;2.83;;
56081;SDS011;41957;52.060;5.138;2022-09-01T03:16:43;12.38;;;3.40;;
56081;SDS011;41957;52.060;5.138;2022-09-01T03:19:08;10.52;;;2.88;;
56081;SDS011;41957;52.060;5.138;2022-09-01T03:21:36;12.90;;;3.10;;
56081;SDS011;41957;52.060;5.138;2022-09-01T03:24:11;10.63;;;2.67;;
56081;SDS011;41957;52.060;5.138;2022-09-01T03:26:41;11.35;;;2.83;;
56081;SDS011;41957;52.060;5.138;2022-09-01T03:29:07;12.38;;;3.15;;
56081;SDS011;41957;52.060;5.138;2022-09-01T03:31:33;11.13;;;2.85;;
56081;SDS011;41957;52.060;5.138;2022-09-01T03:34:00;10.88;;;2.80;;
56081;SDS011;41957;52.060;5.138;2022-09-01T03:36:27;12.30;;;2.83;;
56081;SDS011;41957;52.060;5.138;2022-09-01T03:38:54;11.73;;;2.85;;
56081;SDS011;41957;52.060;5.138;2022-09-01T03:41:21;10.57;;;2.95;;
56081;SDS011;41957;52.060;5.138;2022-09-01T03:43:49;11.32;;;2.80;;
56081;SDS011;41957;52.060;5.138;2022-09-01T03:46:19;10.98;;;2.80;;
56081;SDS011;41957;52.060;5.138;2022-09-01T03:48:46;9.52;;;2.50;;
56081;SDS011;41957;52.060;5.138;2022-09-01T03:51:14;10.73;;;2.60;;
56081;SDS011;41957;52.060;5.138;2022-09-01T03:53:39;11.52;;;2.78;;
56081;SDS011;41957;52.060;5.138;2022-09-01T03:56:05;11.50;;;2.97;;
56081;SDS011;41957;52.060;5.138;2022-09-01T03:58:32;11.52;;;2.90;;
56081;SDS011;41957;52.060;5.138;2022-09-01T04:00:59;9.55;;;2.42;;
56081;SDS011;41957;52.060;5.138;2022-09-01T04:03:28;10.73;;;2.85;;
56081;SDS011;41957;52.060;5.138;2022-09-01T04:05:56;8.55;;;2.20;;
56081;SDS011;41957;52.060;5.138;2022-09-01T04:08:24;11.15;;;2.88;;
56081;SDS011;41957;52.060;5.138;2022-09-01T04:10:53;10.10;;;2.75;;
56081;SDS011;41957;52.060;5.138;2022-09-01T04:13:20;11.38;;;3.00;;
56081;SDS011;41957;52.060;5.138;2022-09-01T04:15:48;9.50;;;2.28;;
56081;SDS011;41957;52.060;5.138;2022-09-01T04:18:14;9.45;;;2.58;;
56081;SDS011;41957;52.060;5.138;2022-09-01T04:20:47;10.45;;;2.75;;
56081;SDS011;41957;52.060;5.138;2022-09-01T04:23:35;10.70;;;2.67;;
56081;SDS011;41957;52.060;5.138;2022-09-01T04:26:08;9.23;;;2.58;;
56081;SDS011;41957;52.060;5.138;2022-09-01T04:28:41;9.77;;;2.80;;
56081;SDS011;41957;52.060;5.138;2022-09-01T04:31:18;10.77;;;2.53;;
56081;SDS011;41957;52.060;5.138;2022-09-01T04:33:47;10.00;;;2.22;;
56081;SDS011;41957;52.060;5.138;2022-09-01T04:36:26;9.52;;;2.40;;
56081;SDS011;41957;52.060;5.138;2022-09-01T04:38:58;10.13;;;2.30;;
56081;SDS011;41957;52.060;5.138;2022-09-01T04:41:27;10.73;;;2.47;;
56081;SDS011;41957;52.060;5.138;2022-09-01T04:43:56;9.90;;;2.55;;
56081;SDS011;41957;52.060;5.138;2022-09-01T04:46:23;9.98;;;2.67;;
56081;SDS011;41957;52.060;5.138;2022-09-01T04:48:52;8.05;;;2.22;;
56081;SDS011;41957;52.060;5.138;2022-09-01T04:51:18;9.65;;;2.20;;
56081;SDS011;41957;52.060;5.138;2022-09-01T04:53:44;8.30;;;2.30;;
56081;SDS011;41957;52.060;5.138;2022-09-01T04:56:13;9.38;;;2.30;;
56081;SDS011;41957;52.060;5.138;2022-09-01T04:58:46;9.27;;;2.60;;
56081;SDS011;41957;52.060;5.138;2022-09-01T05:01:17;8.98;;;2.40;;
56081;SDS011;41957;52.060;5.138;2022-09-01T05:03:44;9.52;;;2.38;;
56081;SDS011;41957;52.060;5.138;2022-09-01T05:06:15;9.15;;;2.40;;
56081;SDS011;41957;52.060;5.138;2022-09-01T05:08:42;9.02;;;2.30;;
56081;SDS011;41957;52.060;5.138;2022-09-01T05:11:09;9.43;;;2.15;;
56081;SDS011;41957;52.060;5.138;2022-09-01T05:13:36;9.05;;;2.58;;
56081;SDS011;41957;52.060;5.138;2022-09-01T05:16:06;8.75;;;2.35;;
56081;SDS011;41957;52.060;5.138;2022-09-01T05:18:37;8.43;;;2.25;;
56081;SDS011;41957;52.060;5.138;2022-09-01T05:21:05;7.82;;;1.90;;
56081;SDS011;41957;52.060;5.138;2022-09-01T05:23:34;9.98;;;2.45;;
56081;SDS011;41957;52.060;5.138;2022-09-01T05:26:00;7.78;;;1.90;;
56081;SDS011;41957;52.060;5.138;2022-09-01T05:28:27;9.43;;;2.40;;
56081;SDS011;41957;52.060;5.138;2022-09-01T05:30:53;10.10;;;2.45;;
56081;SDS011;41957;52.060;5.138;2022-09-01T05:33:18;9.15;;;2.28;;
56081;SDS011;41957;52.060;5.138;2022-09-01T05:35:51;9.77;;;2.17;;
56081;SDS011;41957;52.060;5.138;2022-09-01T05:38:23;9.63;;;2.40;;
56081;SDS011;41957;52.060;5.138;2022-09-01T05:40:56;8.90;;;2.10;;
56081;SDS011;41957;52.060;5.138;2022-09-01T05:43:25;8.95;;;2.10;;
56081;SDS011;41957;52.060;5.138;2022-09-01T05:45:51;9.10;;;2.22;;
56081;SDS011;41957;52.060;5.138;2022-09-01T05:48:17;8.55;;;2.10;;
56081;SDS011;41957;52.060;5.138;2022-09-01T05:50:45;9.95;;;2.20;;
56081;SDS011;41957;52.060;5.138;2022-09-01T05:53:13;9.93;;;2.10;;
56081;SDS011;41957;52.060;5.138;2022-09-01T05:55:44;10.23;;;2.38;;
56081;SDS011;41957;52.060;5.138;2022-09-01T05:58:11;9.27;;;2.20;;
56081;SDS011;41957;52.060;5.138;2022-09-01T06:00:42;11.32;;;2.08;;
56081;SDS011;41957;52.060;5.138;2022-09-01T06:03:11;9.05;;;2.05;;
56081;SDS011;41957;52.060;5.138;2022-09-01T06:05:38;11.15;;;2.25;;
56081;SDS011;41957;52.060;5.138;2022-09-01T06:08:05;10.60;;;2.28;;
56081;SDS011;41957;52.060;5.138;2022-09-01T06:10:32;9.68;;;1.92;;
56081;SDS011;41957;52.060;5.138;2022-09-01T06:13:01;11.52;;;2.05;;
56081;SDS011;41957;52.060;5.138;2022-09-01T06:15:28;9.52;;;2.15;;
56081;SDS011;41957;52.060;5.138;2022-09-01T06:17:54;10.02;;;2.15;;
56081;SDS011;41957;52.060;5.138;2022-09-01T06:20:21;9.65;;;2.17;;
56081;SDS011;41957;52.060;5.138;2022-09-01T06:22:47;9.80;;;2.40;;
56081;SDS011;41957;52.060;5.138;2022-09-01T06:25:13;9.32;;;2.30;;
56081;SDS011;41957;52.060;5.138;2022-09-01T06:27:41;10.38;;;2.30;;
56081;SDS011;41957;52.060;5.138;2022-09-01T06:30:09;8.07;;;1.92;;
56081;SDS011;41957;52.060;5.138;2022-09-01T06:32:44;8.48;;;2.10;;
56081;SDS011;41957;52.060;5.138;2022-09-01T06:35:10;8.63;;;2.00;;
56081;SDS011;41957;52.060;5.138;2022-09-01T06:37:37;10.10;;;2.00;;
56081;SDS011;41957;52.060;5.138;2022-09-01T06:40:03;8.30;;;1.98;;
56081;SDS011;41957;52.060;5.138;2022-09-01T06:42:30;8.45;;;2.17;;
56081;SDS011;41957;52.060;5.138;2022-09-01T06:44:59;10.35;;;2.20;;
56081;SDS011;41957;52.060;5.138;2022-09-01T06:47:25;10.32;;;2.05;;
56081;SDS011;41957;52.060;5.138;2022-09-01T06:49:52;9.63;;;2.25;;
56081;SDS011;41957;52.060;5.138;2022-09-01T06:52:23;8.75;;;1.92;;
56081;SDS011;41957;52.060;5.138;2022-09-01T06:54:49;7.30;;;1.98;;
56081;SDS011;41957;52.060;5.138;2022-09-01T06:57:16;8.70;;;2.00;;
56081;SDS011;41957;52.060;5.138;2022-09-01T06:59:41;7.95;;;1.90;;
56081;SDS011;41957;52.060;5.138;2022-09-01T07:02:06;9.13;;;2.00;;
56081;SDS011;41957;52.060;5.138;2022-09-01T07:04:33;8.88;;;2.00;;
56081;SDS011;41957;52.060;5.138;2022-09-01T07:06:58;7.97;;;2.10;;
56081;SDS011;41957;52.060;5.138;2022-09-01T07:09:24;7.68;;;2.05;;
56081;SDS011;41957;52.060;5.138;2022-09-01T07:11:50;8.98;;;2.00;;
56081;SDS011;41957;52.060;5.138;2022-09-01T07:14:17;9.85;;;2.10;;
56081;SDS011;41957;52.060;5.138;2022-09-01T07:16:43;7.40;;;2.00;;
56081;SDS011;41957;52.060;5.138;2022-09-01T07:19:10;5.70;;;1.70;;
56081;SDS011;41957;52.060;5.138;2022-09-01T07:21:40;8.00;;;2.08;;
56081;SDS011;41957;52.060;5.138;2022-09-01T07:24:07;5.75;;;1.63;;
56081;SDS011;41957;52.060;5.138;2022-09-01T07:26:34;8.68;;;2.10;;
56081;SDS011;41957;52.060;5.138;2022-09-01T07:29:01;7.47;;;2.00;;
56081;SDS011;41957;52.060;5.138;2022-09-01T07:31:29;9.15;;;1.88;;
56081;SDS011;41957;52.060;5.138;2022-09-01T07:34:00;7.82;;;1.90;;
56081;SDS011;41957;52.060;5.138;2022-09-01T07:36:28;7.90;;;1.83;;
56081;SDS011;41957;52.060;5.138;2022-09-01T07:38:53;6.65;;;1.80;;
56081;SDS011;41957;52.060;5.138;2022-09-01T07:41:20;6.60;;;1.80;;
56081;SDS011;41957;52.060;5.138;2022-09-01T07:43:46;8.15;;;1.77;;
56081;SDS011;41957;52.060;5.138;2022-09-01T07:46:16;9.32;;;2.00;;
56081;SDS011;41957;52.060;5.138;2022-09-01T07:48:47;13.45;;;2.53;;
56081;SDS011;41957;52.060;5.138;2022-09-01T07:51:14;9.63;;;1.90;;
56081;SDS011;41957;52.060;5.138;2022-09-01T07:53:44;7.28;;;1.70;;
56081;SDS011;41957;52.060;5.138;2022-09-01T07:56:12;8.40;;;1.80;;
56081;SDS011;41957;52.060;5.138;2022-09-01T07:58:39;5.90;;;1.52;;
56081;SDS011;41957;52.060;5.138;2022-09-01T08:01:09;5.55;;;1.60;;
56081;SDS011;41957;52.060;5.138;2022-09-01T08:03:38;7.78;;;1.80;;
56081;SDS011;41957;52.060;5.138;2022-09-01T08:06:08;8.45;;;2.00;;
56081;SDS011;41957;52.060;5.138;2022-09-01T08:08:35;6.57;;;2.00;;
56081;SDS011;41957;52.060;5.138;2022-09-01T08:11:02;7.25;;;1.77;;
56081;SDS011;41957;52.060;5.138;2022-09-01T08:13:28;9.45;;;1.70;;
56081;SDS011;41957;52.060;5.138;2022-09-01T08:15:53;7.43;;;1.60;;
56081;SDS011;41957;52.060;5.138;2022-09-01T08:18:19;8.05;;;1.92;;
56081;SDS011;41957;52.060;5.138;2022-09-01T08:20:45;7.53;;;1.85;;
56081;SDS011;41957;52.060;5.138;2022-09-01T08:23:15;9.65;;;1.90;;
56081;SDS011;41957;52.060;5.138;2022-09-01T08:25:42;7.32;;;1.75;;
56081;SDS011;41957;52.060;5.138;2022-09-01T08:28:09;5.93;;;1.50;;
56081;SDS011;41957;52.060;5.138;2022-09-01T08:30:36;6.72;;;1.67;;
56081;SDS011;41957;52.060;5.138;2022-09-01T08:33:03;9.80;;;1.67;;
56081;SDS011;41957;52.060;5.138;2022-09-01T08:35:29;8.18;;;1.67;;
56081;SDS011;41957;52.060;5.138;2022-09-01T08:37:55;8.95;;;1.67;;
56081;SDS011;41957;52.060;5.138;2022-09-01T08:40:21;6.07;;;1.45;;
56081;SDS011;41957;52.060;5.138;2022-09-01T08:46:01;6.32;;;1.60;;
56081;SDS011;41957;52.060;5.138;2022-09-01T08:48:41;5.90;;;1.45;;
56081;SDS011;41957;52.060;5.138;2022-09-01T08:56:46;8.88;;;1.75;;
56081;SDS011;41957;52.060;5.138;2022-09-01T08:59:15;7.10;;;1.70;;
56081;SDS011;41957;52.060;5.138;2022-09-01T09:01:51;6.70;;;1.60;;
56081;SDS011;41957;52.060;5.138;2022-09-01T09:04:34;6.55;;;1.60;;
56081;SDS011;41957;52.060;5.138;2022-09-01T09:18:25;6.20;;;1.50;;
56081;SDS011;41957;52.060;5.138;2022-09-01T09:20:56;5.93;;;1.60;;
56081;SDS011;41957;52.060;5.138;2022-09-01T09:23:34;5.18;;;1.50;;
56081;SDS011;41957;52.060;5.138;2022-09-01T09:26:05;7.88;;;1.90;;
56081;SDS011;41957;52.060;5.138;2022-09-01T09:28:30;4.47;;;1.50;;
56081;SDS011;41957;52.060;5.138;2022-09-01T09:33:57;6.60;;;1.77;;
56081;SDS011;41957;52.060;5.138;2022-09-01T09:36:28;7.18;;;1.48;;
56081;SDS011;41957;52.060;5.138;2022-09-01T09:39:03;5.97;;;1.55;;
56081;SDS011;41957;52.060;5.138;2022-09-01T09:41:34;7.50;;;1.70;;
56081;SDS011;41957;52.060;5.138;2022-09-01T09:46:39;5.03;;;1.42;;
56081;SDS011;41957;52.060;5.138;2022-09-01T09:49:15;5.53;;;1.42;;
56081;SDS011;41957;52.060;5.138;2022-09-01T09:51:55;5.68;;;1.67;;
56081;SDS011;41957;52.060;5.138;2022-09-01T09:54:57;6.32;;;1.67;;
56081;SDS011;41957;52.060;5.138;2022-09-01T09:57:25;6.53;;;1.50;;
56081;SDS011;41957;52.060;5.138;2022-09-01T10:02:25;5.65;;;1.50;;
56081;SDS011;41957;52.060;5.138;2022-09-01T10:07:49;5.03;;;1.48;;
56081;SDS011;41957;52.060;5.138;2022-09-01T10:10:26;6.65;;;1.67;;
56081;SDS011;41957;52.060;5.138;2022-09-01T10:12:52;4.07;;;1.38;;
56081;SDS011;41957;52.060;5.138;2022-09-01T10:15:22;6.53;;;1.60;;
56081;SDS011;41957;52.060;5.138;2022-09-01T10:17:51;4.03;;;1.50;;
56081;SDS011;41957;52.060;5.138;2022-09-01T10:20:20;6.00;;;1.40;;
56081;SDS011;41957;52.060;5.138;2022-09-01T10:22:47;5.82;;;1.50;;
56081;SDS011;41957;52.060;5.138;2022-09-01T10:25:18;4.40;;;1.30;;
56081;SDS011;41957;52.060;5.138;2022-09-01T10:27:54;5.93;;;1.50;;
56081;SDS011;41957;52.060;5.138;2022-09-01T10:30:23;6.07;;;1.63;;
56081;SDS011;41957;52.060;5.138;2022-09-01T10:32:56;3.88;;;1.30;;
56081;SDS011;41957;52.060;5.138;2022-09-01T10:35:31;5.47;;;1.55;;
56081;SDS011;41957;52.060;5.138;2022-09-01T10:38:00;7.10;;;1.67;;
56081;SDS011;41957;52.060;5.138;2022-09-01T10:40:40;7.70;;;1.70;;
56081;SDS011;41957;52.060;5.138;2022-09-01T10:45:59;5.13;;;1.38;;
56081;SDS011;41957;52.060;5.138;2022-09-01T10:48:25;4.38;;;1.45;;
56081;SDS011;41957;52.060;5.138;2022-09-01T10:51:33;4.55;;;1.40;;
56081;SDS011;41957;52.060;5.138;2022-09-01T10:56:42;3.90;;;1.25;;
56081;SDS011;41957;52.060;5.138;2022-09-01T11:04:14;6.10;;;1.67;;
56081;SDS011;41957;52.060;5.138;2022-09-01T11:09:46;4.53;;;1.40;;
56081;SDS011;41957;52.060;5.138;2022-09-01T11:15:38;5.15;;;1.55;;
56081;SDS011;41957;52.060;5.138;2022-09-01T11:18:16;5.30;;;1.50;;
56081;SDS011;41957;52.060;5.138;2022-09-01T11:20:47;5.18;;;1.52;;
56081;SDS011;41957;52.060;5.138;2022-09-01T11:25:56;4.95;;;1.60;;
56081;SDS011;41957;52.060;5.138;2022-09-01T11:28:47;7.47;;;1.65;;
56081;SDS011;41957;52.060;5.138;2022-09-01T11:31:14;5.07;;;1.40;;
56081;SDS011;41957;52.060;5.138;2022-09-01T11:34:02;6.03;;;1.65;;
56081;SDS011;41957;52.060;5.138;2022-09-01T11:36:36;4.40;;;1.50;;
56081;SDS011;41957;52.060;5.138;2022-09-01T11:39:23;8.05;;;1.65;;
56081;SDS011;41957;52.060;5.138;2022-09-01T11:41:56;5.60;;;1.63;;
56081;SDS011;41957;52.060;5.138;2022-09-01T11:44:58;7.93;;;1.70;;
56081;SDS011;41957;52.060;5.138;2022-09-01T11:50:04;5.47;;;1.50;;
56081;SDS011;41957;52.060;5.138;2022-09-01T11:52:54;5.53;;;1.30;;
56081;SDS011;41957;52.060;5.138;2022-09-01T11:55:32;5.65;;;1.45;;
56081;SDS011;41957;52.060;5.138;2022-09-01T11:58:01;5.13;;;1.38;;
56081;SDS011;41957;52.060;5.138;2022-09-01T12:00:29;5.95;;;1.65;;
56081;SDS011;41957;52.060;5.138;2022-09-01T12:03:02;5.78;;;1.70;;
56081;SDS011;41957;52.060;5.138;2022-09-01T12:07:56;5.70;;;1.45;;
56081;SDS011;41957;52.060;5.138;2022-09-01T12:15:26;5.03;;;1.60;;
56081;SDS011;41957;52.060;5.138;2022-09-01T12:17:53;6.97;;;1.60;;
56081;SDS011;41957;52.060;5.138;2022-09-01T12:20:35;5.60;;;1.60;;
56081;SDS011;41957;52.060;5.138;2022-09-01T12:23:15;3.20;;;1.33;;
56081;SDS011;41957;52.060;5.138;2022-09-01T12:25:47;6.63;;;1.42;;
56081;SDS011;41957;52.060;5.138;2022-09-01T12:28:13;7.15;;;1.65;;
56081;SDS011;41957;52.060;5.138;2022-09-01T12:30:39;4.78;;;1.15;;
56081;SDS011;41957;52.060;5.138;2022-09-01T12:33:08;4.97;;;1.50;;
56081;SDS011;41957;52.060;5.138;2022-09-01T12:35:35;6.85;;;1.60;;
56081;SDS011;41957;52.060;5.138;2022-09-01T12:38:20;6.40;;;1.52;;
56081;SDS011;41957;52.060;5.138;2022-09-01T12:40:53;4.18;;;1.30;;
56081;SDS011;41957;52.060;5.138;2022-09-01T12:43:30;4.80;;;1.30;;
56081;SDS011;41957;52.060;5.138;2022-09-01T12:45:55;4.25;;;1.40;;
56081;SDS011;41957;52.060;5.138;2022-09-01T12:50:52;4.22;;;1.52;;
56081;SDS011;41957;52.060;5.138;2022-09-01T12:53:19;4.32;;;1.40;;
56081;SDS011;41957;52.060;5.138;2022-09-01T12:55:55;3.22;;;1.20;;
56081;SDS011;41957;52.060;5.138;2022-09-01T12:58:25;6.88;;;1.50;;
56081;SDS011;41957;52.060;5.138;2022-09-01T13:03:22;4.85;;;1.35;;
56081;SDS011;41957;52.060;5.138;2022-09-01T13:05:52;7.10;;;1.65;;
56081;SDS011;41957;52.060;5.138;2022-09-01T13:08:20;4.35;;;1.40;;
56081;SDS011;41957;52.060;5.138;2022-09-01T13:11:05;6.53;;;1.48;;
56081;SDS011;41957;52.060;5.138;2022-09-01T13:13:33;5.15;;;1.35;;
56081;SDS011;41957;52.060;5.138;2022-09-01T13:16:02;4.57;;;1.38;;
56081;SDS011;41957;52.060;5.138;2022-09-01T13:18:32;4.97;;;1.40;;
56081;SDS011;41957;52.060;5.138;2022-09-01T13:20:57;5.50;;;1.52;;
56081;SDS011;41957;52.060;5.138;2022-09-01T13:23:23;5.75;;;1.60;;
56081;SDS011;41957;52.060;5.138;2022-09-01T13:25:49;6.00;;;1.58;;
56081;SDS011;41957;52.060;5.138;2022-09-01T13:28:15;5.80;;;1.42;;
56081;SDS011;41957;52.060;5.138;2022-09-01T13:30:44;6.28;;;1.30;;
56081;SDS011;41957;52.060;5.138;2022-09-01T13:33:16;5.75;;;1.30;;
56081;SDS011;41957;52.060;5.138;2022-09-01T13:35:42;5.03;;;1.35;;
56081;SDS011;41957;52.060;5.138;2022-09-01T13:38:07;6.10;;;1.50;;
56081;SDS011;41957;52.060;5.138;2022-09-01T13:40:33;5.38;;;1.48;;
56081;SDS011;41957;52.060;5.138;2022-09-01T13:42:58;6.75;;;1.55;;
56081;SDS011;41957;52.060;5.138;2022-09-01T13:45:24;8.05;;;1.50;;
56081;SDS011;41957;52.060;5.138;2022-09-01T13:47:50;6.07;;;1.45;;
56081;SDS011;41957;52.060;5.138;2022-09-01T13:50:16;5.60;;;1.48;;
56081;SDS011;41957;52.060;5.138;2022-09-01T13:52:50;5.93;;;1.42;;
56081;SDS011;41957;52.060;5.138;2022-09-01T13:55:21;5.97;;;1.63;;
56081;SDS011;41957;52.060;5.138;2022-09-01T13:57:51;5.72;;;1.20;;
56081;SDS011;41957;52.060;5.138;2022-09-01T14:00:18;4.07;;;1.40;;
56081;SDS011;41957;52.060;5.138;2022-09-01T14:02:47;6.03;;;1.60;;
56081;SDS011;41957;52.060;5.138;2022-09-01T14:05:32;6.00;;;1.35;;
56081;SDS011;41957;52.060;5.138;2022-09-01T14:08:00;6.80;;;1.60;;
56081;SDS011;41957;52.060;5.138;2022-09-01T14:10:26;4.47;;;1.50;;
56081;SDS011;41957;52.060;5.138;2022-09-01T14:12:53;4.68;;;1.38;;
56081;SDS011;41957;52.060;5.138;2022-09-01T14:15:19;5.25;;;1.35;;
56081;SDS011;41957;52.060;5.138;2022-09-01T14:17:47;5.80;;;1.40;;
56081;SDS011;41957;52.060;5.138;2022-09-01T14:20:18;5.35;;;1.50;;
56081;SDS011;41957;52.060;5.138;2022-09-01T14:22:45;5.53;;;1.65;;
56081;SDS011;41957;52.060;5.138;2022-09-01T14:25:12;7.05;;;1.50;;
56081;SDS011;41957;52.060;5.138;2022-09-01T14:27:39;4.90;;;1.48;;
56081;SDS011;41957;52.060;5.138;2022-09-01T14:30:07;5.78;;;1.40;;
56081;SDS011;41957;52.060;5.138;2022-09-01T14:32:34;5.00;;;1.30;;
56081;SDS011;41957;52.060;5.138;2022-09-01T14:34:59;5.38;;;1.40;;
56081;SDS011;41957;52.060;5.138;2022-09-01T14:37:26;4.53;;;1.25;;
56081;SDS011;41957;52.060;5.138;2022-09-01T14:39:52;5.07;;;1.35;;
56081;SDS011;41957;52.060;5.138;2022-09-01T14:42:19;4.85;;;1.30;;
56081;SDS011;41957;52.060;5.138;2022-09-01T14:44:45;4.47;;;1.35;;
56081;SDS011;41957;52.060;5.138;2022-09-01T14:47:12;5.43;;;1.30;;
56081;SDS011;41957;52.060;5.138;2022-09-01T14:49:38;3.28;;;1.27;;
56081;SDS011;41957;52.060;5.138;2022-09-01T14:52:04;4.80;;;1.40;;
56081;SDS011;41957;52.060;5.138;2022-09-01T14:54:32;6.13;;;1.52;;
56081;SDS011;41957;52.060;5.138;2022-09-01T14:56:59;4.65;;;1.30;;
56081;SDS011;41957;52.060;5.138;2022-09-01T14:59:25;4.28;;;1.40;;
56081;SDS011;41957;52.060;5.138;2022-09-01T15:01:50;8.85;;;1.60;;
56081;SDS011;41957;52.060;5.138;2022-09-01T15:04:16;4.85;;;1.48;;
56081;SDS011;41957;52.060;5.138;2022-09-01T15:06:41;5.03;;;1.30;;
56081;SDS011;41957;52.060;5.138;2022-09-01T15:09:07;5.18;;;1.45;;
56081;SDS011;41957;52.060;5.138;2022-09-01T15:11:32;6.47;;;1.50;;
56081;SDS011;41957;52.060;5.138;2022-09-01T15:13:58;4.57;;;1.45;;
56081;SDS011;41957;52.060;5.138;2022-09-01T15:16:24;4.78;;;1.50;;
56081;SDS011;41957;52.060;5.138;2022-09-01T15:18:50;5.93;;;1.50;;
56081;SDS011;41957;52.060;5.138;2022-09-01T15:21:17;4.38;;;1.23;;
56081;SDS011;41957;52.060;5.138;2022-09-01T15:23:46;5.82;;;1.40;;
56081;SDS011;41957;52.060;5.138;2022-09-01T15:26:13;5.20;;;1.23;;
56081;SDS011;41957;52.060;5.138;2022-09-01T15:28:40;5.32;;;1.52;;
56081;SDS011;41957;52.060;5.138;2022-09-01T15:31:05;5.88;;;1.30;;
56081;SDS011;41957;52.060;5.138;2022-09-01T15:33:31;5.90;;;1.40;;
56081;SDS011;41957;52.060;5.138;2022-09-01T15:35:56;4.95;;;1.48;;
56081;SDS011;41957;52.060;5.138;2022-09-01T15:38:21;3.90;;;1.27;;
56081;SDS011;41957;52.060;5.138;2022-09-01T15:40:47;5.20;;;1.25;;
56081;SDS011;41957;52.060;5.138;2022-09-01T15:43:13;5.18;;;1.42;;
56081;SDS011;41957;52.060;5.138;2022-09-01T15:45:38;5.75;;;1.45;;
56081;SDS011;41957;52.060;5.138;2022-09-01T15:48:05;5.15;;;1.48;;
56081;SDS011;41957;52.060;5.138;2022-09-01T15:50:31;5.72;;;1.48;;
56081;SDS011;41957;52.060;5.138;2022-09-01T15:52:57;6.65;;;1.27;;
56081;SDS011;41957;52.060;5.138;2022-09-01T15:55:36;5.50;;;1.35;;
56081;SDS011;41957;52.060;5.138;2022-09-01T15:58:05;6.32;;;1.80;;
56081;SDS011;41957;52.060;5.138;2022-09-01T16:00:30;6.63;;;1.48;;
56081;SDS011;41957;52.060;5.138;2022-09-01T16:02:56;7.90;;;1.50;;